createdAt,value
2018-06-14T00:01:24.866Z,11.40
2018-06-14T00:02:30.406Z,11.40
2018-06-14T00:03:35.821Z,11.40
2018-06-14T00:04:41.270Z,11.40
2018-06-14T00:05:46.844Z,11.40
2018-06-14T00:06:52.411Z,11.40
2018-06-14T00:09:02.892Z,11.40
2018-06-14T00:10:08.646Z,11.30
2018-06-14T00:11:14.077Z,11.40
2018-06-14T00:12:19.780Z,11.30
2018-06-14T00:13:25.189Z,11.30
2018-06-14T00:14:30.671Z,11.30
2018-06-14T00:15:36.151Z,11.30
2018-06-14T00:16:41.583Z,11.30
2018-06-14T00:17:47.071Z,11.30
2018-06-14T00:18:52.528Z,11.30
2018-06-14T00:19:57.942Z,11.30
2018-06-14T00:21:03.702Z,11.20
2018-06-14T00:22:09.105Z,11.20
2018-06-14T00:23:14.685Z,11.20
2018-06-14T00:24:20.469Z,11.20
2018-06-14T00:25:25.881Z,11.20
2018-06-14T00:26:31.343Z,11.20
2018-06-14T00:27:36.753Z,11.30
2018-06-14T00:28:42.200Z,11.30
2018-06-14T00:29:47.601Z,11.30
2018-06-14T00:30:52.997Z,11.30
2018-06-14T00:31:58.517Z,11.30
2018-06-14T00:33:03.930Z,11.30
2018-06-14T00:34:09.390Z,11.30
2018-06-14T00:35:14.815Z,11.30
2018-06-14T00:36:20.262Z,11.30
2018-06-14T00:37:25.661Z,11.30
2018-06-14T00:38:31.449Z,11.30
2018-06-14T00:39:37.280Z,11.30
2018-06-14T00:40:42.840Z,11.30
2018-06-14T00:41:48.268Z,11.30
2018-06-14T00:42:53.755Z,11.30
2018-06-14T00:45:04.237Z,11.30
2018-06-14T00:46:09.713Z,11.20
2018-06-14T00:47:15.410Z,11.20
2018-06-14T00:48:20.855Z,11.20
2018-06-14T00:49:26.489Z,11.20
2018-06-14T00:50:31.935Z,11.30
2018-06-14T00:52:42.685Z,11.20
2018-06-14T00:53:48.116Z,11.20
2018-06-14T00:54:53.667Z,11.30
2018-06-14T00:55:59.109Z,11.30
2018-06-14T00:57:27.626Z,11.30
2018-06-14T00:58:33.079Z,11.30
2018-06-14T00:59:38.490Z,11.40
2018-06-14T01:00:43.926Z,11.40
2018-06-14T01:01:49.713Z,11.40
2018-06-14T01:02:55.150Z,11.40
2018-06-14T01:04:00.932Z,11.50
2018-06-14T01:05:06.574Z,11.40
2018-06-14T01:06:12.125Z,11.50
2018-06-14T01:07:17.562Z,11.50
2018-06-14T01:08:22.967Z,11.50
2018-06-14T01:09:28.419Z,11.60
2018-06-14T01:10:34.308Z,11.50
2018-06-14T01:11:40.272Z,11.60
2018-06-14T01:12:45.893Z,11.60
2018-06-14T01:13:51.317Z,11.60
2018-06-14T01:14:56.878Z,11.60
2018-06-14T01:16:02.509Z,11.50
2018-06-14T01:17:08.608Z,11.60
2018-06-14T01:18:14.049Z,11.60
2018-06-14T01:19:19.462Z,11.60
2018-06-14T01:20:24.998Z,11.50
2018-06-14T01:21:31.142Z,11.60
2018-06-14T01:22:36.612Z,11.60
2018-06-14T01:23:42.014Z,11.60
2018-06-14T01:24:47.484Z,11.60
2018-06-14T01:25:52.938Z,11.60
2018-06-14T01:26:58.645Z,11.60
2018-06-14T01:28:04.160Z,11.50
2018-06-14T01:29:09.556Z,11.50
2018-06-14T01:30:14.993Z,11.50
2018-06-14T01:31:20.862Z,11.50
2018-06-14T01:32:26.709Z,11.50
2018-06-14T01:33:32.108Z,11.50
2018-06-14T01:34:37.580Z,11.40
2018-06-14T01:35:43.055Z,11.40
2018-06-14T01:36:48.582Z,11.40
2018-06-14T01:38:10.694Z,11.40
2018-06-14T01:39:16.103Z,11.40
2018-06-14T01:40:21.561Z,11.40
2018-06-14T01:41:26.989Z,11.40
2018-06-14T01:42:32.402Z,11.40
2018-06-14T01:43:38.170Z,11.40
2018-06-14T01:44:43.630Z,11.40
2018-06-14T01:45:49.039Z,11.40
2018-06-14T01:46:54.441Z,11.30
2018-06-14T01:47:59.963Z,11.30
2018-06-14T01:49:05.730Z,11.30
2018-06-14T01:50:11.191Z,11.30
2018-06-14T01:51:16.617Z,11.20
2018-06-14T01:52:22.001Z,11.20
2018-06-14T01:53:27.422Z,11.20
2018-06-14T01:54:33.198Z,11.20
2018-06-14T01:55:38.739Z,11.20
2018-06-14T01:56:44.256Z,11.20
2018-06-14T01:57:49.716Z,11.20
2018-06-14T01:58:55.107Z,11.20
2018-06-14T02:00:00.989Z,11.20
2018-06-14T02:01:06.446Z,11.20
2018-06-14T02:02:12.159Z,11.20
2018-06-14T02:03:17.581Z,11.10
2018-06-14T02:04:23.026Z,11.10
2018-06-14T02:05:28.885Z,11.10
2018-06-14T02:06:34.370Z,11.10
2018-06-14T02:07:39.822Z,11.10
2018-06-14T02:08:45.241Z,11.10
2018-06-14T02:09:50.653Z,11.10
2018-06-14T02:10:56.314Z,11.10
2018-06-14T02:12:01.787Z,11.10
2018-06-14T02:13:07.249Z,11.10
2018-06-14T02:14:12.781Z,11.10
2018-06-14T02:15:18.221Z,11.00
2018-06-14T02:16:23.833Z,11.10
2018-06-14T02:17:29.297Z,11.10
2018-06-14T02:18:34.731Z,11.10
2018-06-14T02:19:40.201Z,11.10
2018-06-14T02:20:45.629Z,11.10
2018-06-14T02:21:51.621Z,11.20
2018-06-14T02:22:57.065Z,11.20
2018-06-14T02:24:02.466Z,11.30
2018-06-14T02:25:07.892Z,11.30
2018-06-14T02:26:13.341Z,11.30
2018-06-14T02:27:18.774Z,11.30
2018-06-14T02:28:24.196Z,11.30
2018-06-14T02:29:29.645Z,11.30
2018-06-14T02:30:35.121Z,11.30
2018-06-14T02:31:40.590Z,11.40
2018-06-14T02:32:46.333Z,11.40
2018-06-14T02:33:51.766Z,11.40
2018-06-14T02:34:57.170Z,11.40
2018-06-14T02:36:02.658Z,11.40
2018-06-14T02:37:08.142Z,11.40
2018-06-14T02:38:13.631Z,11.40
2018-06-14T02:39:19.111Z,11.40
2018-06-14T02:40:24.531Z,11.40
2018-06-14T02:41:29.965Z,11.30
2018-06-14T02:42:35.576Z,11.30
2018-06-14T02:43:41.350Z,11.30
2018-06-14T02:44:46.862Z,11.30
2018-06-14T02:45:52.263Z,11.30
2018-06-14T02:46:57.673Z,11.20
2018-06-14T02:48:03.114Z,11.20
2018-06-14T02:49:09.072Z,11.20
2018-06-14T02:50:14.525Z,11.20
2018-06-14T02:51:20.010Z,11.20
2018-06-14T02:52:25.434Z,11.20
2018-06-14T02:53:31.247Z,11.20
2018-06-14T02:54:36.700Z,11.20
2018-06-14T02:55:42.153Z,11.10
2018-06-14T02:56:47.549Z,11.10
2018-06-14T02:57:52.953Z,11.10
2018-06-14T02:58:58.373Z,11.10
2018-06-14T03:00:03.893Z,11.10
2018-06-14T03:01:09.312Z,11.10
2018-06-14T03:02:14.740Z,11.10
2018-06-14T03:03:20.155Z,11.10
2018-06-14T03:04:25.722Z,11.10
2018-06-14T03:05:31.188Z,11.10
2018-06-14T03:06:36.614Z,11.00
2018-06-14T03:07:42.034Z,11.10
2018-06-14T03:08:47.445Z,11.00
2018-06-14T03:09:52.874Z,11.10
2018-06-14T03:10:58.349Z,11.10
2018-06-14T03:12:03.948Z,11.10
2018-06-14T03:13:09.438Z,11.10
2018-06-14T03:14:14.923Z,11.10
2018-06-14T03:15:20.381Z,11.10
2018-06-14T03:16:25.796Z,11.10
2018-06-14T03:17:31.365Z,11.10
2018-06-14T03:18:36.878Z,11.10
2018-06-14T03:19:42.422Z,11.20
2018-06-14T03:20:47.958Z,11.20
2018-06-14T03:21:53.470Z,11.20
2018-06-14T03:22:59.517Z,11.20
2018-06-14T03:24:05.054Z,11.20
2018-06-14T03:25:10.638Z,11.30
2018-06-14T03:27:21.281Z,11.40
2018-06-14T03:28:27.237Z,11.40
2018-06-14T03:29:32.685Z,11.40
2018-06-14T03:30:38.169Z,11.40
2018-06-14T03:31:43.789Z,11.50
2018-06-14T03:32:50.318Z,11.50
2018-06-14T03:33:55.773Z,11.50
2018-06-14T03:35:01.213Z,11.50
2018-06-14T03:36:06.676Z,11.50
2018-06-14T03:37:12.203Z,11.50
2018-06-14T03:38:17.826Z,11.50
2018-06-14T03:39:23.251Z,11.50
2018-06-14T03:40:29.060Z,11.50
2018-06-14T03:41:34.470Z,11.60
2018-06-14T03:42:46.822Z,11.60
2018-06-14T03:43:52.452Z,11.60
2018-06-14T03:44:57.970Z,11.60
2018-06-14T03:46:03.460Z,11.70
2018-06-14T03:47:09.279Z,11.70
2018-06-14T03:48:14.693Z,11.70
2018-06-14T03:50:25.502Z,11.80
2018-06-14T03:51:30.953Z,11.80
2018-06-14T03:52:36.522Z,11.80
2018-06-14T03:53:41.945Z,11.80
2018-06-14T03:54:47.401Z,11.90
2018-06-14T03:55:52.858Z,11.80
2018-06-14T03:56:58.251Z,11.80
2018-06-14T03:58:03.745Z,11.90
2018-06-14T03:59:09.223Z,11.90
2018-06-14T04:00:14.630Z,11.90
2018-06-14T04:03:30.593Z,12.00
2018-06-14T04:04:35.996Z,12.10
2018-06-14T04:05:41.585Z,12.20
2018-06-14T04:06:47.446Z,12.40
2018-06-14T04:07:52.858Z,12.60
2018-06-14T04:08:58.342Z,12.90
2018-06-14T04:10:03.870Z,13.10
2018-06-14T04:11:09.282Z,13.30
2018-06-14T04:12:14.778Z,13.30
2018-06-14T04:13:20.182Z,13.40
2018-06-14T04:14:25.623Z,13.60
2018-06-14T04:15:31.078Z,13.70
2018-06-14T04:16:37.641Z,13.90
2018-06-14T04:17:43.109Z,14.10
2018-06-14T04:18:48.526Z,14.30
2018-06-14T04:19:54.033Z,14.40
2018-06-14T04:20:59.465Z,14.80
2018-06-14T04:22:04.929Z,14.90
2018-06-14T04:23:10.406Z,14.90
2018-06-14T04:25:21.166Z,15.10
2018-06-14T04:26:26.969Z,14.90
2018-06-14T04:27:32.467Z,14.90
2018-06-14T04:28:37.912Z,14.80
2018-06-14T04:29:43.778Z,14.80
2018-06-14T04:30:49.206Z,15.10
2018-06-14T04:31:54.593Z,15.10
2018-06-14T04:33:00.161Z,15.20
2018-06-14T04:34:05.684Z,15.40
2018-06-14T04:35:11.102Z,15.40
2018-06-14T04:36:16.543Z,15.30
2018-06-14T04:37:21.984Z,15.50
2018-06-14T04:38:27.393Z,15.50
2018-06-14T04:39:32.818Z,15.20
2018-06-14T04:40:38.228Z,15.40
2018-06-14T04:41:43.673Z,15.30
2018-06-14T04:42:49.518Z,15.60
2018-06-14T04:43:54.953Z,15.80
2018-06-14T04:45:00.374Z,16.10
2018-06-14T04:46:06.290Z,16.30
2018-06-14T04:47:11.804Z,16.50
2018-06-14T04:48:17.345Z,16.60
2018-06-14T04:49:22.864Z,16.50
2018-06-14T04:50:28.301Z,16.50
2018-06-14T04:51:37.757Z,16.70
2018-06-14T04:52:43.174Z,16.20
2018-06-14T04:53:48.754Z,16.20
2018-06-14T04:54:54.201Z,16.20
2018-06-14T04:55:59.660Z,16.10
2018-06-14T04:57:05.685Z,16.30
2018-06-14T04:58:11.604Z,16.00
2018-06-14T04:59:17.016Z,16.00
2018-06-14T05:00:22.594Z,16.20
2018-06-14T05:01:28.080Z,16.30
2018-06-14T05:02:33.504Z,16.20
2018-06-14T05:03:39.108Z,16.30
2018-06-14T05:04:44.713Z,16.60
2018-06-14T05:05:50.249Z,16.80
2018-06-14T05:08:00.721Z,16.90
2018-06-14T05:09:10.714Z,16.60
2018-06-14T05:10:16.782Z,16.40
2018-06-14T05:11:22.193Z,16.10
2018-06-14T05:12:27.635Z,15.90
2018-06-14T05:13:33.126Z,15.70
2018-06-14T05:14:38.635Z,15.50
2018-06-14T05:15:44.083Z,15.30
2018-06-14T05:16:49.576Z,15.20
2018-06-14T05:17:55.252Z,14.90
2018-06-14T05:19:00.702Z,14.70
2018-06-14T05:20:06.669Z,14.60
2018-06-14T05:21:12.086Z,14.60
2018-06-14T05:22:17.488Z,14.60
2018-06-14T05:23:22.920Z,14.70
2018-06-14T05:24:28.346Z,14.60
2018-06-14T05:25:33.876Z,14.60
2018-06-14T05:26:39.294Z,14.60
2018-06-14T05:27:44.707Z,14.60
2018-06-14T05:28:50.153Z,14.70
2018-06-14T05:29:55.606Z,14.70
2018-06-14T05:31:01.045Z,14.80
2018-06-14T05:32:06.525Z,14.80
2018-06-14T05:33:12.034Z,14.80
2018-06-14T05:34:17.474Z,14.80
2018-06-14T05:35:22.913Z,14.90
2018-06-14T05:36:28.478Z,14.90
2018-06-14T05:38:39.065Z,15.10
2018-06-14T05:39:44.462Z,15.20
2018-06-14T05:40:49.882Z,15.10
2018-06-14T05:41:55.354Z,15.10
2018-06-14T05:43:00.802Z,15.20
2018-06-14T05:44:06.305Z,15.20
2018-06-14T05:45:11.718Z,15.10
2018-06-14T05:46:17.148Z,15.00
2018-06-14T05:47:22.637Z,15.00
2018-06-14T05:48:28.068Z,15.10
2018-06-14T05:49:33.505Z,15.20
2018-06-14T05:50:39.009Z,15.10
2018-06-14T05:51:44.465Z,15.10
2018-06-14T05:52:49.857Z,15.20
2018-06-14T05:53:55.288Z,15.20
2018-06-14T05:55:00.739Z,15.20
2018-06-14T05:57:11.300Z,15.30
2018-06-14T05:58:16.762Z,15.30
2018-06-14T05:59:22.231Z,15.30
2018-06-14T06:00:27.724Z,15.40
2018-06-14T06:01:33.178Z,15.50
2018-06-14T06:03:43.805Z,15.50
2018-06-14T06:04:49.203Z,15.50
2018-06-14T06:05:54.673Z,15.60
2018-06-14T06:07:00.085Z,15.60
2018-06-14T06:08:05.508Z,15.70
2018-06-14T06:09:12.416Z,15.70
2018-06-14T06:10:17.956Z,15.70
2018-06-14T06:11:23.374Z,15.70
2018-06-14T06:12:28.802Z,15.70
2018-06-14T06:13:34.294Z,15.70
2018-06-14T06:14:39.708Z,15.70
2018-06-14T06:15:45.226Z,15.80
2018-06-14T06:16:50.753Z,15.80
2018-06-14T06:17:56.182Z,15.80
2018-06-14T06:19:01.633Z,15.80
2018-06-14T06:20:16.930Z,15.80
2018-06-14T06:21:22.832Z,15.90
2018-06-14T06:22:28.271Z,15.90
2018-06-14T06:23:33.774Z,15.80
2018-06-14T06:24:39.247Z,15.80
2018-06-14T06:25:44.653Z,15.90
2018-06-14T06:26:50.333Z,15.90
2018-06-14T06:27:55.748Z,15.90
2018-06-14T06:29:01.143Z,16.00
2018-06-14T06:30:06.893Z,16.00
2018-06-14T06:31:12.314Z,16.00
2018-06-14T06:32:18.157Z,16.10
2018-06-14T06:33:23.728Z,16.10
2018-06-14T06:34:29.461Z,16.10
2018-06-14T06:35:35.149Z,16.10
2018-06-14T06:36:40.762Z,16.20
2018-06-14T06:37:46.380Z,16.30
2018-06-14T06:38:51.856Z,16.40
2018-06-14T06:39:58.306Z,16.60
2018-06-14T06:41:03.769Z,16.60
2018-06-14T06:42:09.285Z,16.70
2018-06-14T06:43:14.806Z,16.80
2018-06-14T06:44:20.204Z,16.90
2018-06-14T06:45:25.691Z,16.90
2018-06-14T06:46:31.125Z,17.00
2018-06-14T06:47:36.552Z,17.00
2018-06-14T06:48:42.410Z,16.90
2018-06-14T06:49:48.187Z,16.90
2018-06-14T06:51:58.697Z,16.90
2018-06-14T06:53:05.688Z,16.90
2018-06-14T06:54:11.560Z,16.90
2018-06-14T06:55:16.997Z,17.00
2018-06-14T06:56:22.396Z,17.10
2018-06-14T06:57:28.508Z,17.10
2018-06-14T06:58:33.936Z,17.20
2018-06-14T06:59:39.477Z,17.20
2018-06-14T07:00:44.881Z,17.20
2018-06-14T07:01:50.381Z,17.30
2018-06-14T07:02:55.855Z,17.20
2018-06-14T07:04:01.258Z,17.20
2018-06-14T07:05:07.285Z,17.30
2018-06-14T07:06:12.903Z,17.30
2018-06-14T07:07:18.161Z,17.30
2018-06-14T07:08:23.568Z,17.30
2018-06-14T07:09:28.950Z,17.40
2018-06-14T07:10:34.597Z,17.50
2018-06-14T07:11:40.001Z,17.50
2018-06-14T07:12:45.413Z,17.40
2018-06-14T07:13:50.865Z,17.50
2018-06-14T07:14:56.365Z,17.50
2018-06-14T07:16:01.805Z,17.60
2018-06-14T07:17:07.973Z,17.60
2018-06-14T07:18:13.497Z,17.60
2018-06-14T07:19:18.924Z,17.70
2018-06-14T07:20:24.380Z,17.70
2018-06-14T07:21:30.234Z,17.70
2018-06-14T07:22:35.634Z,17.70
2018-06-14T07:23:41.046Z,17.60
2018-06-14T07:24:46.533Z,17.70
2018-06-14T07:25:52.299Z,17.70
2018-06-14T07:26:58.112Z,17.70
2018-06-14T07:28:03.507Z,17.80
2018-06-14T07:29:08.926Z,17.80
2018-06-14T07:30:14.418Z,17.80
2018-06-14T07:31:19.890Z,17.90
2018-06-14T07:32:25.321Z,18.00
2018-06-14T07:33:30.782Z,18.00
2018-06-14T07:34:36.202Z,18.00
2018-06-14T07:35:41.738Z,18.00
2018-06-14T07:36:47.178Z,18.00
2018-06-14T07:37:52.627Z,18.10
2018-06-14T07:38:58.092Z,18.20
2018-06-14T07:40:03.646Z,18.20
2018-06-14T07:41:09.065Z,18.20
2018-06-14T07:42:14.457Z,18.20
2018-06-14T07:43:19.925Z,18.30
2018-06-14T07:44:25.440Z,18.30
2018-06-14T07:45:30.841Z,18.40
2018-06-14T07:46:36.239Z,18.40
2018-06-14T07:47:41.639Z,18.50
2018-06-14T07:48:47.056Z,18.50
2018-06-14T07:49:52.590Z,18.60
2018-06-14T07:50:58.397Z,18.50
2018-06-14T07:52:03.813Z,18.50
2018-06-14T07:53:09.221Z,18.40
2018-06-14T07:54:14.669Z,18.40
2018-06-14T07:55:20.088Z,18.50
2018-06-14T07:56:25.566Z,18.40
2018-06-14T07:57:30.957Z,18.50
2018-06-14T07:58:36.694Z,18.50
2018-06-14T07:59:42.100Z,18.60
2018-06-14T08:00:47.522Z,18.70
2018-06-14T08:01:53.318Z,18.70
2018-06-14T08:02:58.749Z,18.80
2018-06-14T08:04:04.161Z,18.80
2018-06-14T08:05:09.618Z,18.90
2018-06-14T08:06:15.029Z,19.00
2018-06-14T08:07:20.609Z,19.10
2018-06-14T08:08:26.040Z,19.00
2018-06-14T08:09:31.526Z,19.10
2018-06-14T08:10:36.993Z,19.10
2018-06-14T08:11:42.695Z,19.10
2018-06-14T08:12:48.194Z,19.10
2018-06-14T08:13:53.620Z,19.10
2018-06-14T08:14:59.054Z,19.00
2018-06-14T08:16:04.506Z,19.00
2018-06-14T08:17:09.993Z,19.00
2018-06-14T08:18:15.618Z,19.20
2018-06-14T08:19:21.038Z,19.10
2018-06-14T08:20:26.737Z,19.20
2018-06-14T08:21:32.175Z,19.20
2018-06-14T08:22:37.625Z,19.20
2018-06-14T08:23:43.547Z,19.30
2018-06-14T08:24:48.973Z,19.30
2018-06-14T08:25:54.555Z,19.40
2018-06-14T08:26:59.977Z,19.50
2018-06-14T08:28:05.448Z,19.50
2018-06-14T08:29:11.113Z,19.50
2018-06-14T08:30:16.630Z,19.60
2018-06-14T08:31:22.070Z,19.70
2018-06-14T08:32:27.485Z,19.80
2018-06-14T08:33:33.100Z,19.90
2018-06-14T08:34:38.502Z,20.00
2018-06-14T08:35:43.898Z,20.10
2018-06-14T08:36:49.305Z,20.10
2018-06-14T08:37:54.761Z,20.20
2018-06-14T08:39:00.202Z,20.10
2018-06-14T08:40:05.741Z,20.20
2018-06-14T08:41:11.214Z,20.20
2018-06-14T08:42:16.661Z,20.10
2018-06-14T08:43:22.089Z,20.00
2018-06-14T08:44:27.710Z,20.00
2018-06-14T08:45:33.226Z,20.20
2018-06-14T08:46:38.613Z,20.30
2018-06-14T08:47:44.039Z,20.40
2018-06-14T08:48:49.456Z,20.50
2018-06-14T08:49:55.109Z,20.50
2018-06-14T08:51:00.559Z,20.60
2018-06-14T08:52:06.193Z,20.50
2018-06-14T08:53:11.604Z,20.60
2018-06-14T08:54:16.997Z,20.50
2018-06-14T08:55:22.443Z,20.60
2018-06-14T08:56:27.865Z,20.70
2018-06-14T08:57:33.470Z,20.80
2018-06-14T08:58:38.929Z,20.80
2018-06-14T08:59:44.316Z,20.80
2018-06-14T09:00:49.818Z,20.70
2018-06-14T09:01:55.289Z,20.70
2018-06-14T09:03:00.754Z,20.60
2018-06-14T09:04:06.272Z,20.50
2018-06-14T09:05:11.726Z,20.50
2018-06-14T09:06:17.181Z,20.40
2018-06-14T09:07:22.673Z,20.40
2018-06-14T09:08:28.361Z,20.40
2018-06-14T09:09:33.777Z,20.30
2018-06-14T09:10:39.217Z,20.30
2018-06-14T09:11:44.938Z,20.30
2018-06-14T09:12:50.503Z,20.40
2018-06-14T09:13:56.034Z,20.50
2018-06-14T09:15:01.475Z,20.50
2018-06-14T09:16:06.950Z,20.50
2018-06-14T09:17:12.359Z,20.60
2018-06-14T09:18:18.145Z,20.60
2018-06-14T09:19:23.717Z,20.80
2018-06-14T09:20:29.258Z,20.90
2018-06-14T09:21:34.695Z,21.10
2018-06-14T09:22:40.122Z,21.10
2018-06-14T09:23:45.568Z,21.20
2018-06-14T09:24:51.214Z,21.20
2018-06-14T09:25:56.618Z,21.30
2018-06-14T09:27:02.057Z,21.50
2018-06-14T09:28:07.498Z,21.60
2018-06-14T09:29:12.926Z,21.70
2018-06-14T09:30:18.728Z,21.60
2018-06-14T09:31:24.169Z,21.50
2018-06-14T09:32:29.565Z,21.50
2018-06-14T09:33:34.979Z,21.60
2018-06-14T09:34:40.409Z,21.70
2018-06-14T09:35:45.883Z,21.70
2018-06-14T09:36:51.342Z,21.80
2018-06-14T09:37:56.741Z,21.90
2018-06-14T09:39:02.409Z,21.80
2018-06-14T09:40:07.875Z,21.90
2018-06-14T09:41:13.438Z,22.10
2018-06-14T09:42:18.854Z,22.30
2018-06-14T09:43:24.341Z,22.40
2018-06-14T09:44:29.766Z,22.60
2018-06-14T09:45:35.183Z,22.80
2018-06-14T09:46:40.652Z,23.00
2018-06-14T09:47:46.163Z,23.10
2018-06-14T09:48:57.369Z,23.30
2018-06-14T09:50:02.765Z,23.40
2018-06-14T09:51:08.225Z,23.40
2018-06-14T09:52:13.755Z,23.50
2018-06-14T09:53:19.197Z,23.50
2018-06-14T09:54:24.629Z,23.40
2018-06-14T09:55:30.043Z,23.10
2018-06-14T09:56:35.659Z,23.00
2018-06-14T09:57:41.109Z,22.70
2018-06-14T09:58:46.517Z,22.50
2018-06-14T09:59:52.394Z,22.20
2018-06-14T10:00:57.787Z,22.20
2018-06-14T10:02:03.246Z,22.20
2018-06-14T10:03:08.759Z,22.20
2018-06-14T10:04:14.213Z,22.40
2018-06-14T10:05:19.649Z,22.40
2018-06-14T10:06:25.076Z,22.50
2018-06-14T10:07:30.492Z,22.50
2018-06-14T10:08:35.888Z,22.70
2018-06-14T10:09:41.275Z,22.90
2018-06-14T10:10:46.683Z,23.00
2018-06-14T10:11:52.273Z,23.10
2018-06-14T10:12:57.871Z,23.20
2018-06-14T10:14:03.266Z,23.20
2018-06-14T10:15:08.696Z,23.30
2018-06-14T10:16:14.143Z,23.10
2018-06-14T10:17:19.539Z,23.00
2018-06-14T10:18:25.701Z,22.80
2018-06-14T10:19:31.115Z,22.90
2018-06-14T10:20:36.720Z,22.80
2018-06-14T10:21:42.156Z,22.80
2018-06-14T10:22:47.562Z,23.00
2018-06-14T10:23:53.157Z,22.90
2018-06-14T10:24:58.558Z,22.80
2018-06-14T10:26:03.996Z,23.00
2018-06-14T10:27:09.393Z,23.20
2018-06-14T10:28:14.816Z,23.30
2018-06-14T10:29:20.315Z,23.50
2018-06-14T10:30:25.732Z,23.40
2018-06-14T10:31:31.269Z,23.50
2018-06-14T10:32:36.705Z,23.40
2018-06-14T10:33:42.137Z,23.00
2018-06-14T10:34:47.754Z,23.00
2018-06-14T10:35:53.166Z,23.00
2018-06-14T10:36:58.599Z,22.90
2018-06-14T10:38:04.110Z,22.90
2018-06-14T10:39:09.874Z,22.90
2018-06-14T10:40:15.350Z,22.80
2018-06-14T10:41:21.732Z,22.80
2018-06-14T10:42:27.147Z,23.00
2018-06-14T10:43:32.615Z,23.10
2018-06-14T10:44:37.971Z,23.30
2018-06-14T10:45:43.525Z,23.50
2018-06-14T10:46:48.977Z,23.90
2018-06-14T10:47:54.349Z,24.00
2018-06-14T10:48:59.762Z,24.00
2018-06-14T10:50:05.199Z,24.10
2018-06-14T10:51:10.654Z,24.00
2018-06-14T10:52:16.128Z,24.00
2018-06-14T10:53:21.528Z,24.10
2018-06-14T10:54:27.283Z,24.20
2018-06-14T10:55:32.683Z,24.30
2018-06-14T10:56:38.396Z,24.30
2018-06-14T10:57:43.826Z,24.40
2018-06-14T10:58:49.231Z,24.50
2018-06-14T10:59:54.657Z,24.40
2018-06-14T11:01:00.173Z,24.50
2018-06-14T11:02:05.723Z,24.40
2018-06-14T11:03:11.232Z,24.70
2018-06-14T11:04:16.620Z,24.70
2018-06-14T11:05:22.026Z,24.70
2018-06-14T11:06:27.436Z,24.70
2018-06-14T11:07:32.854Z,24.80
2018-06-14T11:08:38.273Z,24.80
2018-06-14T11:09:43.694Z,24.90
2018-06-14T11:10:49.305Z,24.90
2018-06-14T11:11:54.700Z,24.80
2018-06-14T11:13:00.106Z,24.80
2018-06-14T11:14:05.641Z,24.70
2018-06-14T11:15:11.116Z,24.50
2018-06-14T11:16:16.525Z,24.50
2018-06-14T11:17:21.941Z,24.20
2018-06-14T11:18:27.396Z,24.20
2018-06-14T11:19:32.774Z,24.20
2018-06-14T11:20:38.334Z,24.00
2018-06-14T11:21:43.732Z,23.90
2018-06-14T11:22:49.149Z,23.90
2018-06-14T11:23:54.545Z,24.00
2018-06-14T11:25:01.800Z,24.10
2018-06-14T11:26:07.459Z,24.10
2018-06-14T11:27:12.868Z,24.10
2018-06-14T11:28:18.269Z,24.00
2018-06-14T11:29:23.698Z,24.00
2018-06-14T11:30:29.105Z,24.10
2018-06-14T11:31:34.581Z,24.00
2018-06-14T11:32:40.027Z,24.10
2018-06-14T11:33:45.437Z,24.10
2018-06-14T11:34:51.068Z,24.10
2018-06-14T11:35:57.490Z,24.10
2018-06-14T11:37:02.957Z,24.10
2018-06-14T11:38:08.408Z,24.20
2018-06-14T11:39:13.843Z,24.20
2018-06-14T11:40:19.281Z,24.10
2018-06-14T11:41:24.703Z,24.00
2018-06-14T11:42:30.163Z,24.00
2018-06-14T11:43:35.650Z,24.00
2018-06-14T11:44:41.077Z,24.00
2018-06-14T11:45:46.483Z,24.00
2018-06-14T11:46:51.910Z,23.90
2018-06-14T11:47:57.344Z,24.00
2018-06-14T11:49:02.816Z,24.10
2018-06-14T11:50:08.273Z,24.30
2018-06-14T11:51:13.886Z,24.30
2018-06-14T11:52:19.300Z,24.40
2018-06-14T11:53:24.698Z,24.50
2018-06-14T11:54:30.345Z,24.60
2018-06-14T11:55:35.753Z,24.60
2018-06-14T11:56:41.217Z,24.70
2018-06-14T11:57:46.638Z,24.70
2018-06-14T11:58:52.038Z,24.70
2018-06-14T12:00:05.843Z,24.80
2018-06-14T12:01:11.303Z,25.00
2018-06-14T12:02:17.069Z,25.30
2018-06-14T12:03:22.507Z,25.40
2018-06-14T12:04:27.886Z,25.40
2018-06-14T12:05:33.291Z,25.50
2018-06-14T12:06:38.724Z,25.60
2018-06-14T12:07:44.097Z,25.60
2018-06-14T12:08:49.519Z,25.50
2018-06-14T12:09:54.938Z,25.30
2018-06-14T12:11:00.353Z,25.20
2018-06-14T12:12:06.131Z,25.10
2018-06-14T12:13:11.576Z,25.20
2018-06-14T12:14:16.966Z,25.10
2018-06-14T12:15:22.748Z,25.00
2018-06-14T12:16:28.213Z,24.80
2018-06-14T12:17:33.624Z,24.50
2018-06-14T12:18:39.177Z,24.40
2018-06-14T12:19:44.574Z,24.50
2018-06-14T12:20:50.409Z,24.30
2018-06-14T12:21:55.904Z,24.10
2018-06-14T12:23:01.301Z,24.20
2018-06-14T12:24:07.114Z,24.20
2018-06-14T12:25:12.525Z,24.10
2018-06-14T12:26:17.938Z,24.10
2018-06-14T12:27:23.337Z,24.10
2018-06-14T12:28:28.782Z,24.10
2018-06-14T12:29:34.238Z,24.10
2018-06-14T12:30:39.846Z,24.10
2018-06-14T12:31:45.276Z,24.00
2018-06-14T12:32:50.711Z,24.00
2018-06-14T12:33:56.552Z,23.90
2018-06-14T12:35:01.939Z,23.90
2018-06-14T12:36:07.358Z,23.80
2018-06-14T12:37:12.785Z,23.70
2018-06-14T12:38:18.206Z,23.60
2018-06-14T12:39:23.840Z,23.40
2018-06-14T12:40:29.393Z,23.30
2018-06-14T12:41:34.937Z,23.10
2018-06-14T12:42:40.376Z,23.10
2018-06-14T12:43:45.804Z,23.10
2018-06-14T12:44:51.229Z,23.00
2018-06-14T12:45:56.628Z,23.10
2018-06-14T12:47:02.184Z,23.20
2018-06-14T12:48:07.638Z,23.30
2018-06-14T12:49:13.067Z,23.30
2018-06-14T12:50:18.466Z,23.50
2018-06-14T12:51:23.887Z,23.60
2018-06-14T12:52:29.373Z,23.60
2018-06-14T12:53:34.822Z,23.60
2018-06-14T12:54:40.217Z,23.50
2018-06-14T12:55:45.691Z,23.40
2018-06-14T12:56:51.259Z,23.40
2018-06-14T12:57:56.759Z,23.20
2018-06-14T12:59:02.301Z,23.00
2018-06-14T13:00:07.742Z,22.90
2018-06-14T13:01:13.138Z,22.90
2018-06-14T13:02:18.537Z,22.80
2018-06-14T13:03:24.017Z,22.70
2018-06-14T13:04:29.551Z,22.70
2018-06-14T13:05:34.956Z,22.60
2018-06-14T13:06:40.655Z,22.50
2018-06-14T13:07:46.063Z,22.50
2018-06-14T13:08:51.530Z,22.40
2018-06-14T13:09:56.967Z,22.40
2018-06-14T13:11:02.456Z,22.40
2018-06-14T13:12:08.042Z,22.30
2018-06-14T13:13:13.462Z,22.30
2018-06-14T13:14:18.909Z,22.30
2018-06-14T13:15:24.301Z,22.20
2018-06-14T13:16:29.738Z,22.10
2018-06-14T13:17:35.297Z,22.00
2018-06-14T13:18:40.892Z,21.90
2018-06-14T13:19:46.446Z,22.00
2018-06-14T13:20:52.253Z,21.80
2018-06-14T13:21:57.657Z,21.70
2018-06-14T13:23:03.157Z,21.70
2018-06-14T13:24:08.593Z,21.70
2018-06-14T13:25:14.258Z,21.70
2018-06-14T13:26:19.661Z,21.70
2018-06-14T13:27:25.168Z,21.70
2018-06-14T13:28:30.608Z,21.80
2018-06-14T13:29:36.147Z,21.70
2018-06-14T13:30:41.769Z,21.70
2018-06-14T13:31:47.180Z,21.80
2018-06-14T13:32:53.098Z,21.90
2018-06-14T13:33:58.529Z,21.90
2018-06-14T13:35:04.021Z,21.90
2018-06-14T13:36:09.837Z,21.90
2018-06-14T13:37:15.247Z,21.80
2018-06-14T13:38:20.845Z,21.90
2018-06-14T13:39:26.277Z,21.90
2018-06-14T13:40:32.098Z,21.90
2018-06-14T13:41:37.562Z,21.90
2018-06-14T13:42:43.026Z,21.90
2018-06-14T13:43:48.431Z,21.80
2018-06-14T13:44:53.835Z,21.90
2018-06-14T13:45:59.423Z,21.90
2018-06-14T13:47:04.923Z,21.80
2018-06-14T13:48:10.429Z,21.70
2018-06-14T13:49:15.941Z,21.70
2018-06-14T13:50:21.382Z,21.70
2018-06-14T13:51:26.830Z,21.60
2018-06-14T13:52:32.273Z,21.60
2018-06-14T13:53:37.699Z,21.50
2018-06-14T13:54:43.164Z,21.40
2018-06-14T13:55:48.649Z,21.40
2018-06-14T13:56:54.311Z,21.40
2018-06-14T13:57:59.686Z,21.50
2018-06-14T13:59:05.302Z,21.40
2018-06-14T14:00:10.789Z,21.50
2018-06-14T14:01:16.348Z,21.50
2018-06-14T14:02:22.070Z,21.40
2018-06-14T14:03:27.685Z,21.30
2018-06-14T14:05:38.221Z,21.10
2018-06-14T14:06:43.766Z,20.90
2018-06-14T14:07:49.584Z,20.80
2018-06-14T14:08:55.019Z,20.70
2018-06-14T14:10:00.676Z,20.60
2018-06-14T14:11:06.120Z,20.50
2018-06-14T14:12:11.630Z,20.40
2018-06-14T14:13:17.289Z,20.20
2018-06-14T14:14:22.730Z,20.20
2018-06-14T14:15:28.161Z,20.00
2018-06-14T14:16:33.590Z,20.00
2018-06-14T14:17:39.077Z,20.00
2018-06-14T14:18:44.522Z,19.90
2018-06-14T14:19:50.040Z,19.80
2018-06-14T14:20:55.670Z,19.80